sensor_id;sensor_type;location;lat;lon;timestamp;P1;durP1;ratioP1;P2;durP2;ratioP2
41943;SDS011;27636;52.610;13.244;2022-07-29T00:02:36;7.05;;;2.95;;
41943;SDS011;27636;52.610;13.244;2022-07-29T00:07:40;8.35;;;2.70;;
41943;SDS011;27636;52.610;13.244;2022-07-29T00:12:45;11.05;;;3.42;;
41943;SDS011;27636;52.610;13.244;2022-07-29T00:17:48;7.23;;;2.70;;
41943;SDS011;27636;52.610;13.244;2022-07-29T00:22:51;9.82;;;2.97;;
41943;SDS011;27636;52.610;13.244;2022-07-29T00:27:55;12.48;;;3.58;;
41943;SDS011;27636;52.610;13.244;2022-07-29T00:32:59;10.30;;;3.40;;
41943;SDS011;27636;52.610;13.244;2022-07-29T00:38:02;6.47;;;2.95;;
41943;SDS011;27636;52.610;13.244;2022-07-29T00:43:06;11.48;;;3.50;;
41943;SDS011;27636;52.610;13.244;2022-07-29T00:48:10;14.00;;;3.13;;
41943;SDS011;27636;52.610;13.244;2022-07-29T00:53:13;8.90;;;3.40;;
41943;SDS011;27636;52.610;13.244;2022-07-29T00:58:17;8.63;;;3.70;;
41943;SDS011;27636;52.610;13.244;2022-07-29T01:03:20;7.05;;;2.90;;
41943;SDS011;27636;52.610;13.244;2022-07-29T01:08:24;7.07;;;3.28;;
41943;SDS011;27636;52.610;13.244;2022-07-29T01:13:28;9.10;;;3.72;;
41943;SDS011;27636;52.610;13.244;2022-07-29T01:18:34;7.38;;;3.33;;
41943;SDS011;27636;52.610;13.244;2022-07-29T01:23:45;7.30;;;3.30;;
41943;SDS011;27636;52.610;13.244;2022-07-29T01:29:05;9.63;;;3.20;;
41943;SDS011;27636;52.610;13.244;2022-07-29T01:34:11;8.50;;;3.38;;
41943;SDS011;27636;52.610;13.244;2022-07-29T01:39:26;8.65;;;3.08;;
41943;SDS011;27636;52.610;13.244;2022-07-29T01:44:37;8.52;;;3.38;;
41943;SDS011;27636;52.610;13.244;2022-07-29T01:49:47;7.15;;;3.20;;
41943;SDS011;27636;52.610;13.244;2022-07-29T01:54:54;8.00;;;3.17;;
41943;SDS011;27636;52.610;13.244;2022-07-29T02:00:01;6.07;;;2.70;;
41943;SDS011;27636;52.610;13.244;2022-07-29T02:05:14;7.38;;;3.00;;
41943;SDS011;27636;52.610;13.244;2022-07-29T02:10:21;5.13;;;2.50;;
41943;SDS011;27636;52.610;13.244;2022-07-29T02:15:30;6.35;;;2.63;;
41943;SDS011;27636;52.610;13.244;2022-07-29T02:20:35;6.32;;;2.80;;
41943;SDS011;27636;52.610;13.244;2022-07-29T02:25:40;8.13;;;3.00;;
41943;SDS011;27636;52.610;13.244;2022-07-29T02:30:48;7.60;;;2.83;;
41943;SDS011;27636;52.610;13.244;2022-07-29T02:35:52;7.60;;;3.00;;
41943;SDS011;27636;52.610;13.244;2022-07-29T02:40:56;6.10;;;2.67;;
41943;SDS011;27636;52.610;13.244;2022-07-29T02:46:03;6.68;;;3.13;;
41943;SDS011;27636;52.610;13.244;2022-07-29T02:51:28;5.97;;;2.80;;
41943;SDS011;27636;52.610;13.244;2022-07-29T02:56:46;11.15;;;3.17;;
41943;SDS011;27636;52.610;13.244;2022-07-29T03:01:52;9.50;;;3.42;;
41943;SDS011;27636;52.610;13.244;2022-07-29T03:06:58;8.18;;;2.72;;
41943;SDS011;27636;52.610;13.244;2022-07-29T03:12:03;7.50;;;2.63;;
41943;SDS011;27636;52.610;13.244;2022-07-29T03:17:08;8.95;;;2.95;;
41943;SDS011;27636;52.610;13.244;2022-07-29T03:22:12;5.68;;;2.95;;
41943;SDS011;27636;52.610;13.244;2022-07-29T03:27:20;8.00;;;3.30;;
41943;SDS011;27636;52.610;13.244;2022-07-29T03:32:25;5.32;;;2.60;;
41943;SDS011;27636;52.610;13.244;2022-07-29T03:37:29;10.65;;;3.30;;
41943;SDS011;27636;52.610;13.244;2022-07-29T03:42:33;5.75;;;2.80;;
41943;SDS011;27636;52.610;13.244;2022-07-29T03:47:42;7.38;;;3.15;;
41943;SDS011;27636;52.610;13.244;2022-07-29T03:52:52;11.23;;;3.53;;
41943;SDS011;27636;52.610;13.244;2022-07-29T03:57:55;12.55;;;2.95;;
41943;SDS011;27636;52.610;13.244;2022-07-29T04:03:02;9.13;;;2.47;;
41943;SDS011;27636;52.610;13.244;2022-07-29T04:08:12;7.72;;;2.88;;
41943;SDS011;27636;52.610;13.244;2022-07-29T04:13:15;9.88;;;2.70;;
41943;SDS011;27636;52.610;13.244;2022-07-29T04:18:19;6.13;;;2.47;;
41943;SDS011;27636;52.610;13.244;2022-07-29T04:23:22;10.20;;;2.63;;
41943;SDS011;27636;52.610;13.244;2022-07-29T04:28:25;8.85;;;3.10;;
41943;SDS011;27636;52.610;13.244;2022-07-29T04:33:30;8.52;;;2.80;;
41943;SDS011;27636;52.610;13.244;2022-07-29T04:38:33;7.50;;;2.40;;
41943;SDS011;27636;52.610;13.244;2022-07-29T04:43:36;5.30;;;2.53;;
41943;SDS011;27636;52.610;13.244;2022-07-29T04:48:41;9.80;;;2.25;;
41943;SDS011;27636;52.610;13.244;2022-07-29T04:53:45;8.98;;;2.53;;
41943;SDS011;27636;52.610;13.244;2022-07-29T04:58:48;7.45;;;2.45;;
41943;SDS011;27636;52.610;13.244;2022-07-29T05:03:54;8.90;;;2.67;;
41943;SDS011;27636;52.610;13.244;2022-07-29T05:09:02;6.57;;;2.22;;
41943;SDS011;27636;52.610;13.244;2022-07-29T05:14:05;5.85;;;2.40;;
41943;SDS011;27636;52.610;13.244;2022-07-29T05:19:11;5.57;;;1.90;;
41943;SDS011;27636;52.610;13.244;2022-07-29T05:24:16;5.70;;;2.20;;
41943;SDS011;27636;52.610;13.244;2022-07-29T05:29:19;8.68;;;2.22;;
41943;SDS011;27636;52.610;13.244;2022-07-29T05:34:44;5.80;;;2.38;;
41943;SDS011;27636;52.610;13.244;2022-07-29T05:39:53;6.95;;;2.80;;
41943;SDS011;27636;52.610;13.244;2022-07-29T05:44:59;7.00;;;2.28;;
41943;SDS011;27636;52.610;13.244;2022-07-29T05:50:04;5.20;;;2.33;;
41943;SDS011;27636;52.610;13.244;2022-07-29T05:55:08;5.93;;;2.42;;
41943;SDS011;27636;52.610;13.244;2022-07-29T06:00:11;9.82;;;2.92;;
41943;SDS011;27636;52.610;13.244;2022-07-29T06:05:16;6.72;;;2.00;;
41943;SDS011;27636;52.610;13.244;2022-07-29T06:10:19;6.75;;;2.22;;
41943;SDS011;27636;52.610;13.244;2022-07-29T06:15:28;7.47;;;2.53;;
41943;SDS011;27636;52.610;13.244;2022-07-29T06:20:32;9.43;;;2.40;;
41943;SDS011;27636;52.610;13.244;2022-07-29T06:25:35;9.07;;;2.30;;
41943;SDS011;27636;52.610;13.244;2022-07-29T06:30:39;7.50;;;2.30;;
41943;SDS011;27636;52.610;13.244;2022-07-29T06:35:44;8.50;;;2.67;;
41943;SDS011;27636;52.610;13.244;2022-07-29T06:40:56;6.35;;;2.60;;
41943;SDS011;27636;52.610;13.244;2022-07-29T06:46:04;5.38;;;2.15;;
41943;SDS011;27636;52.610;13.244;2022-07-29T06:51:10;5.25;;;2.33;;
41943;SDS011;27636;52.610;13.244;2022-07-29T07:01:16;6.90;;;2.40;;
41943;SDS011;27636;52.610;13.244;2022-07-29T07:06:21;6.32;;;2.42;;
41943;SDS011;27636;52.610;13.244;2022-07-29T07:11:24;6.40;;;2.10;;
41943;SDS011;27636;52.610;13.244;2022-07-29T07:16:27;12.82;;;3.00;;
41943;SDS011;27636;52.610;13.244;2022-07-29T07:21:32;4.72;;;2.33;;
41943;SDS011;27636;52.610;13.244;2022-07-29T07:26:37;7.70;;;2.30;;
41943;SDS011;27636;52.610;13.244;2022-07-29T07:31:42;5.75;;;1.98;;
41943;SDS011;27636;52.610;13.244;2022-07-29T07:36:46;5.15;;;2.03;;
41943;SDS011;27636;52.610;13.244;2022-07-29T07:41:49;5.78;;;2.30;;
41943;SDS011;27636;52.610;13.244;2022-07-29T07:46:53;8.23;;;1.95;;
41943;SDS011;27636;52.610;13.244;2022-07-29T07:51:57;5.22;;;1.58;;
41943;SDS011;27636;52.610;13.244;2022-07-29T07:57:00;4.93;;;1.77;;
41943;SDS011;27636;52.610;13.244;2022-07-29T08:02:03;4.85;;;1.85;;
41943;SDS011;27636;52.610;13.244;2022-07-29T08:07:08;6.75;;;2.40;;
41943;SDS011;27636;52.610;13.244;2022-07-29T08:12:11;9.18;;;2.13;;
41943;SDS011;27636;52.610;13.244;2022-07-29T08:17:15;4.43;;;1.67;;
41943;SDS011;27636;52.610;13.244;2022-07-29T08:22:19;9.02;;;2.15;;
41943;SDS011;27636;52.610;13.244;2022-07-29T08:27:23;8.38;;;2.35;;
41943;SDS011;27636;52.610;13.244;2022-07-29T08:32:45;4.22;;;1.90;;
41943;SDS011;27636;52.610;13.244;2022-07-29T08:37:57;5.07;;;2.00;;
41943;SDS011;27636;52.610;13.244;2022-07-29T08:43:04;4.10;;;1.50;;
41943;SDS011;27636;52.610;13.244;2022-07-29T08:48:08;5.28;;;1.60;;
41943;SDS011;27636;52.610;13.244;2022-07-29T08:53:13;4.97;;;1.65;;
41943;SDS011;27636;52.610;13.244;2022-07-29T08:58:17;8.88;;;1.83;;
41943;SDS011;27636;52.610;13.244;2022-07-29T09:03:29;7.13;;;1.90;;
41943;SDS011;27636;52.610;13.244;2022-07-29T09:08:35;7.20;;;1.67;;
41943;SDS011;27636;52.610;13.244;2022-07-29T09:13:38;5.47;;;1.65;;
41943;SDS011;27636;52.610;13.244;2022-07-29T09:18:41;3.58;;;1.52;;
41943;SDS011;27636;52.610;13.244;2022-07-29T09:24:04;6.82;;;2.25;;
41943;SDS011;27636;52.610;13.244;2022-07-29T09:29:10;7.60;;;2.00;;
41943;SDS011;27636;52.610;13.244;2022-07-29T09:34:15;8.35;;;1.60;;
41943;SDS011;27636;52.610;13.244;2022-07-29T09:39:30;5.50;;;1.60;;
41943;SDS011;27636;52.610;13.244;2022-07-29T09:44:42;4.10;;;1.50;;
41943;SDS011;27636;52.610;13.244;2022-07-29T09:49:53;4.97;;;1.67;;
41943;SDS011;27636;52.610;13.244;2022-07-29T09:55:08;9.80;;;1.67;;
41943;SDS011;27636;52.610;13.244;2022-07-29T10:00:20;4.55;;;1.30;;
41943;SDS011;27636;52.610;13.244;2022-07-29T10:05:26;6.03;;;1.58;;
41943;SDS011;27636;52.610;13.244;2022-07-29T10:10:40;2.85;;;1.20;;
41943;SDS011;27636;52.610;13.244;2022-07-29T10:15:45;4.05;;;1.20;;
41943;SDS011;27636;52.610;13.244;2022-07-29T10:20:49;4.70;;;1.23;;
41943;SDS011;27636;52.610;13.244;2022-07-29T10:25:54;3.13;;;1.25;;
41943;SDS011;27636;52.610;13.244;2022-07-29T10:30:59;4.28;;;1.50;;
41943;SDS011;27636;52.610;13.244;2022-07-29T10:36:07;5.72;;;1.75;;
41943;SDS011;27636;52.610;13.244;2022-07-29T10:46:58;3.92;;;1.63;;
41943;SDS011;27636;52.610;13.244;2022-07-29T10:52:03;5.03;;;1.48;;
41943;SDS011;27636;52.610;13.244;2022-07-29T10:57:13;5.88;;;1.63;;
41943;SDS011;27636;52.610;13.244;2022-07-29T11:13:48;5.90;;;1.70;;
41943;SDS011;27636;52.610;13.244;2022-07-29T11:24:32;5.25;;;1.40;;
41943;SDS011;27636;52.610;13.244;2022-07-29T11:29:39;2.92;;;1.23;;
41943;SDS011;27636;52.610;13.244;2022-07-29T11:40:20;5.50;;;1.55;;
41943;SDS011;27636;52.610;13.244;2022-07-29T11:45:26;4.80;;;1.70;;
41943;SDS011;27636;52.610;13.244;2022-07-29T11:50:47;5.72;;;1.75;;
41943;SDS011;27636;52.610;13.244;2022-07-29T11:55:54;4.55;;;1.50;;
41943;SDS011;27636;52.610;13.244;2022-07-29T12:01:01;4.43;;;1.38;;
41943;SDS011;27636;52.610;13.244;2022-07-29T12:06:11;3.47;;;1.50;;
41943;SDS011;27636;52.610;13.244;2022-07-29T12:11:17;8.57;;;2.17;;
41943;SDS011;27636;52.610;13.244;2022-07-29T12:16:33;5.28;;;1.80;;
41943;SDS011;27636;52.610;13.244;2022-07-29T12:21:43;8.88;;;1.77;;
41943;SDS011;27636;52.610;13.244;2022-07-29T12:32:06;5.45;;;1.95;;
41943;SDS011;27636;52.610;13.244;2022-07-29T12:37:21;6.25;;;1.75;;
41943;SDS011;27636;52.610;13.244;2022-07-29T12:42:55;3.75;;;1.70;;
41943;SDS011;27636;52.610;13.244;2022-07-29T12:48:10;4.88;;;2.00;;
41943;SDS011;27636;52.610;13.244;2022-07-29T12:53:14;5.47;;;2.20;;
41943;SDS011;27636;52.610;13.244;2022-07-29T12:58:26;4.25;;;1.90;;
41943;SDS011;27636;52.610;13.244;2022-07-29T13:03:47;6.72;;;2.17;;
41943;SDS011;27636;52.610;13.244;2022-07-29T13:09:03;6.32;;;2.47;;
41943;SDS011;27636;52.610;13.244;2022-07-29T13:14:12;5.95;;;2.30;;
41943;SDS011;27636;52.610;13.244;2022-07-29T13:19:18;8.35;;;2.45;;
41943;SDS011;27636;52.610;13.244;2022-07-29T13:24:21;6.53;;;2.60;;
41943;SDS011;27636;52.610;13.244;2022-07-29T13:29:24;10.57;;;2.45;;
41943;SDS011;27636;52.610;13.244;2022-07-29T13:34:34;4.50;;;2.35;;
41943;SDS011;27636;52.610;13.244;2022-07-29T13:39:37;6.53;;;2.30;;
41943;SDS011;27636;52.610;13.244;2022-07-29T13:44:40;12.07;;;2.03;;
41943;SDS011;27636;52.610;13.244;2022-07-29T13:49:46;8.30;;;2.20;;
41943;SDS011;27636;52.610;13.244;2022-07-29T13:54:49;6.03;;;2.50;;
41943;SDS011;27636;52.610;13.244;2022-07-29T13:59:52;6.90;;;2.38;;
41943;SDS011;27636;52.610;13.244;2022-07-29T14:04:57;7.57;;;2.38;;
41943;SDS011;27636;52.610;13.244;2022-07-29T14:10:00;10.57;;;2.05;;
41943;SDS011;27636;52.610;13.244;2022-07-29T14:15:04;5.13;;;2.38;;
41943;SDS011;27636;52.610;13.244;2022-07-29T14:20:09;6.10;;;2.17;;
41943;SDS011;27636;52.610;13.244;2022-07-29T14:25:12;7.68;;;2.35;;
41943;SDS011;27636;52.610;13.244;2022-07-29T14:30:17;8.15;;;2.35;;
41943;SDS011;27636;52.610;13.244;2022-07-29T14:40:25;5.85;;;2.50;;
41943;SDS011;27636;52.610;13.244;2022-07-29T14:45:28;7.67;;;2.83;;
41943;SDS011;27636;52.610;13.244;2022-07-29T14:50:33;7.43;;;2.35;;
41943;SDS011;27636;52.610;13.244;2022-07-29T14:55:36;4.75;;;2.17;;
41943;SDS011;27636;52.610;13.244;2022-07-29T15:00:40;5.32;;;2.47;;
41943;SDS011;27636;52.610;13.244;2022-07-29T15:05:44;6.88;;;2.50;;
41943;SDS011;27636;52.610;13.244;2022-07-29T15:10:49;6.50;;;2.63;;
41943;SDS011;27636;52.610;13.244;2022-07-29T15:15:52;6.32;;;2.35;;
41943;SDS011;27636;52.610;13.244;2022-07-29T15:21:02;6.72;;;2.90;;
41943;SDS011;27636;52.610;13.244;2022-07-29T15:26:06;5.40;;;2.80;;
41943;SDS011;27636;52.610;13.244;2022-07-29T15:31:09;6.65;;;2.53;;
41943;SDS011;27636;52.610;13.244;2022-07-29T15:36:13;5.68;;;2.60;;
41943;SDS011;27636;52.610;13.244;2022-07-29T15:41:36;10.48;;;2.70;;
41943;SDS011;27636;52.610;13.244;2022-07-29T15:46:39;5.60;;;2.70;;
41943;SDS011;27636;52.610;13.244;2022-07-29T15:52:04;5.87;;;2.47;;
41943;SDS011;27636;52.610;13.244;2022-07-29T15:57:09;9.10;;;2.72;;
41943;SDS011;27636;52.610;13.244;2022-07-29T16:02:12;5.40;;;2.40;;
41943;SDS011;27636;52.610;13.244;2022-07-29T16:07:16;10.07;;;5.47;;
41943;SDS011;27636;52.610;13.244;2022-07-29T16:12:20;5.43;;;2.30;;
41943;SDS011;27636;52.610;13.244;2022-07-29T16:17:23;10.40;;;2.40;;
41943;SDS011;27636;52.610;13.244;2022-07-29T16:22:28;5.90;;;2.60;;
41943;SDS011;27636;52.610;13.244;2022-07-29T16:27:31;5.47;;;2.38;;
41943;SDS011;27636;52.610;13.244;2022-07-29T16:32:39;10.60;;;2.40;;
41943;SDS011;27636;52.610;13.244;2022-07-29T16:37:44;7.60;;;3.00;;
41943;SDS011;27636;52.610;13.244;2022-07-29T16:42:47;5.40;;;2.50;;
41943;SDS011;27636;52.610;13.244;2022-07-29T16:47:51;6.35;;;2.72;;
41943;SDS011;27636;52.610;13.244;2022-07-29T16:53:03;7.72;;;2.47;;
41943;SDS011;27636;52.610;13.244;2022-07-29T17:03:10;4.80;;;2.20;;
41943;SDS011;27636;52.610;13.244;2022-07-29T17:08:16;3.35;;;2.00;;
41943;SDS011;27636;52.610;13.244;2022-07-29T17:18:22;6.47;;;2.63;;
41943;SDS011;27636;52.610;13.244;2022-07-29T17:23:28;5.95;;;1.98;;
41943;SDS011;27636;52.610;13.244;2022-07-29T17:33:34;4.25;;;1.77;;
41943;SDS011;27636;52.610;13.244;2022-07-29T17:38:39;5.68;;;1.77;;
41943;SDS011;27636;52.610;13.244;2022-07-29T17:43:44;6.40;;;2.13;;
41943;SDS011;27636;52.610;13.244;2022-07-29T17:48:47;5.53;;;2.10;;
41943;SDS011;27636;52.610;13.244;2022-07-29T17:53:52;3.67;;;1.73;;
41943;SDS011;27636;52.610;13.244;2022-07-29T17:58:56;7.90;;;1.80;;
41943;SDS011;27636;52.610;13.244;2022-07-29T18:04:03;7.65;;;2.10;;
41943;SDS011;27636;52.610;13.244;2022-07-29T18:09:07;6.80;;;2.00;;
41943;SDS011;27636;52.610;13.244;2022-07-29T18:14:10;6.65;;;1.92;;
41943;SDS011;27636;52.610;13.244;2022-07-29T18:19:14;5.03;;;1.98;;
41943;SDS011;27636;52.610;13.244;2022-07-29T18:24:18;5.60;;;1.70;;
41943;SDS011;27636;52.610;13.244;2022-07-29T18:29:22;10.45;;;2.35;;
41943;SDS011;27636;52.610;13.244;2022-07-29T18:34:25;4.13;;;1.70;;
41943;SDS011;27636;52.610;13.244;2022-07-29T18:39:29;5.55;;;1.75;;
41943;SDS011;27636;52.610;13.244;2022-07-29T18:44:33;4.72;;;2.00;;
41943;SDS011;27636;52.610;13.244;2022-07-29T18:49:46;8.07;;;1.73;;
41943;SDS011;27636;52.610;13.244;2022-07-29T18:54:50;5.78;;;2.00;;
41943;SDS011;27636;52.610;13.244;2022-07-29T18:59:54;4.38;;;1.80;;
41943;SDS011;27636;52.610;13.244;2022-07-29T19:04:59;7.40;;;2.00;;
41943;SDS011;27636;52.610;13.244;2022-07-29T19:10:04;3.50;;;1.80;;
41943;SDS011;27636;52.610;13.244;2022-07-29T19:15:08;6.75;;;1.80;;
41943;SDS011;27636;52.610;13.244;2022-07-29T19:20:12;10.32;;;2.05;;
41943;SDS011;27636;52.610;13.244;2022-07-29T19:25:17;5.93;;;1.95;;
41943;SDS011;27636;52.610;13.244;2022-07-29T19:30:21;5.03;;;1.60;;
41943;SDS011;27636;52.610;13.244;2022-07-29T19:35:24;4.43;;;1.80;;
41943;SDS011;27636;52.610;13.244;2022-07-29T19:40:34;6.03;;;1.70;;
41943;SDS011;27636;52.610;13.244;2022-07-29T19:45:38;6.28;;;2.45;;
41943;SDS011;27636;52.610;13.244;2022-07-29T19:50:41;3.97;;;1.67;;
41943;SDS011;27636;52.610;13.244;2022-07-29T19:55:46;8.02;;;2.08;;
41943;SDS011;27636;52.610;13.244;2022-07-29T20:00:49;7.20;;;2.30;;
41943;SDS011;27636;52.610;13.244;2022-07-29T20:05:53;3.15;;;1.45;;
41943;SDS011;27636;52.610;13.244;2022-07-29T20:10:57;4.40;;;1.70;;
41943;SDS011;27636;52.610;13.244;2022-07-29T20:16:00;4.00;;;1.75;;
41943;SDS011;27636;52.610;13.244;2022-07-29T20:21:06;6.50;;;1.88;;
41943;SDS011;27636;52.610;13.244;2022-07-29T20:26:11;3.92;;;1.65;;
41943;SDS011;27636;52.610;13.244;2022-07-29T20:31:17;6.38;;;1.80;;
41943;SDS011;27636;52.610;13.244;2022-07-29T20:36:20;4.93;;;2.08;;
41943;SDS011;27636;52.610;13.244;2022-07-29T20:41:25;4.85;;;2.05;;
41943;SDS011;27636;52.610;13.244;2022-07-29T20:46:30;4.00;;;2.00;;
41943;SDS011;27636;52.610;13.244;2022-07-29T20:51:34;5.57;;;2.03;;
41943;SDS011;27636;52.610;13.244;2022-07-29T20:56:46;4.38;;;1.75;;
41943;SDS011;27636;52.610;13.244;2022-07-29T21:01:50;4.05;;;1.83;;
41943;SDS011;27636;52.610;13.244;2022-07-29T21:06:53;5.25;;;2.13;;
41943;SDS011;27636;52.610;13.244;2022-07-29T21:11:58;3.83;;;1.83;;
41943;SDS011;27636;52.610;13.244;2022-07-29T21:17:02;5.47;;;2.40;;
41943;SDS011;27636;52.610;13.244;2022-07-29T21:22:09;8.95;;;2.22;;
41943;SDS011;27636;52.610;13.244;2022-07-29T21:27:13;4.63;;;1.90;;
41943;SDS011;27636;52.610;13.244;2022-07-29T21:32:35;4.95;;;1.88;;
41943;SDS011;27636;52.610;13.244;2022-07-29T21:37:41;2.78;;;1.60;;
41943;SDS011;27636;52.610;13.244;2022-07-29T21:42:45;5.65;;;2.10;;
41943;SDS011;27636;52.610;13.244;2022-07-29T21:47:51;6.28;;;2.13;;
41943;SDS011;27636;52.610;13.244;2022-07-29T21:52:54;6.63;;;2.22;;
41943;SDS011;27636;52.610;13.244;2022-07-29T21:57:58;6.70;;;2.38;;
41943;SDS011;27636;52.610;13.244;2022-07-29T22:03:04;10.60;;;2.57;;
41943;SDS011;27636;52.610;13.244;2022-07-29T22:08:07;4.35;;;1.88;;
41943;SDS011;27636;52.610;13.244;2022-07-29T22:13:12;4.88;;;1.98;;
41943;SDS011;27636;52.610;13.244;2022-07-29T22:18:15;7.40;;;2.20;;
41943;SDS011;27636;52.610;13.244;2022-07-29T22:23:22;5.80;;;2.08;;
41943;SDS011;27636;52.610;13.244;2022-07-29T22:28:26;4.90;;;2.20;;
41943;SDS011;27636;52.610;13.244;2022-07-29T22:33:29;8.38;;;2.25;;
41943;SDS011;27636;52.610;13.244;2022-07-29T22:38:33;3.80;;;1.95;;
41943;SDS011;27636;52.610;13.244;2022-07-29T22:43:38;5.05;;;2.10;;
41943;SDS011;27636;52.610;13.244;2022-07-29T22:48:41;5.63;;;2.42;;
41943;SDS011;27636;52.610;13.244;2022-07-29T22:53:44;3.97;;;1.83;;
41943;SDS011;27636;52.610;13.244;2022-07-29T22:58:49;6.80;;;2.15;;
41943;SDS011;27636;52.610;13.244;2022-07-29T23:03:53;6.30;;;2.08;;
41943;SDS011;27636;52.610;13.244;2022-07-29T23:08:56;5.53;;;2.28;;
41943;SDS011;27636;52.610;13.244;2022-07-29T23:14:01;4.65;;;1.98;;
41943;SDS011;27636;52.610;13.244;2022-07-29T23:19:04;6.13;;;2.30;;
41943;SDS011;27636;52.610;13.244;2022-07-29T23:24:07;6.63;;;2.10;;
41943;SDS011;27636;52.610;13.244;2022-07-29T23:29:11;6.55;;;2.20;;
41943;SDS011;27636;52.610;13.244;2022-07-29T23:34:15;4.90;;;2.07;;
41943;SDS011;27636;52.610;13.244;2022-07-29T23:39:18;3.97;;;2.00;;
41943;SDS011;27636;52.610;13.244;2022-07-29T23:44:23;5.72;;;2.33;;
41943;SDS011;27636;52.610;13.244;2022-07-29T23:49:26;7.95;;;2.30;;
41943;SDS011;27636;52.610;13.244;2022-07-29T23:54:29;5.63;;;2.17;;
41943;SDS011;27636;52.610;13.244;2022-07-29T23:59:34;6.40;;;1.92;;
